Time;durP1;ratioP1;P1;durP2;ratioP2;P2;SDS_P1;SDS_P2;PMS_P1;PMS_P2;Temp;Humidity;BMP_temperature;BMP_pressure;BME280_temperature;BME280_humidity;BME280_pressure;Samples;Min_cycle;Max_cycle;Signal;HPM_P1;HPM_P2
2024/03/25 00:00:48;;;;;;;17.92;6.78;;;4.90;100.00;;;;;;4944301;29;20055;-77
2024/03/25 00:03:13;;;;;;;22.42;7.07;;;4.90;100.00;;;;;;4943371;29;20050;-77
2024/03/25 00:05:39;;;;;;;20.80;8.48;;;4.90;100.00;;;;;;4944533;28;20051;-77
2024/03/25 00:08:06;;;;;;;17.10;7.28;;;4.90;100.00;;;;;;4927422;28;20063;-76
2024/03/25 00:10:32;;;;;;;12.85;6.13;;;4.90;100.00;;;;;;4928467;29;20122;-76
2024/03/25 00:12:57;;;;;;;14.75;6.38;;;4.90;100.00;;;;;;4929066;29;20591;-76
2024/03/25 00:15:23;;;;;;;17.92;7.70;;;4.90;100.00;;;;;;4929326;29;20051;-76
2024/03/25 00:17:50;;;;;;;15.63;7.13;;;4.90;100.00;;;;;;4930035;29;20055;-76
2024/03/25 00:20:16;;;;;;;16.55;6.38;;;4.90;100.00;;;;;;4945223;28;20062;-77
2024/03/25 00:22:42;;;;;;;16.20;7.13;;;4.90;100.00;;;;;;4944253;28;20058;-77
2024/03/25 00:25:08;;;;;;;16.80;6.65;;;4.90;100.00;;;;;;4944744;28;20535;-76
2024/03/25 00:27:34;;;;;;;16.33;6.72;;;4.90;100.00;;;;;;4929006;28;21064;-76
2024/03/25 00:30:00;;;;;;;17.90;6.80;;;4.90;100.00;;;;;;4947467;29;20134;-81
2024/03/25 00:32:26;;;;;;;19.05;7.07;;;4.90;100.00;;;;;;4934682;29;20063;-81
2024/03/25 00:34:52;;;;;;;19.63;6.35;;;4.90;100.00;;;;;;4949882;28;20058;-80
2024/03/25 00:37:18;;;;;;;19.70;6.82;;;4.90;100.00;;;;;;4949177;28;20063;-80
2024/03/25 00:39:45;;;;;;;20.52;7.45;;;4.80;100.00;;;;;;4932390;29;20150;-80
2024/03/25 00:42:11;;;;;;;16.35;6.18;;;4.80;100.00;;;;;;4949832;28;20051;-81
2024/03/25 00:44:36;;;;;;;22.33;6.78;;;4.80;100.00;;;;;;4949699;28;20055;-81
2024/03/25 00:47:02;;;;;;;21.52;7.80;;;4.90;100.00;;;;;;4933260;29;20143;-81
2024/03/25 00:49:29;;;;;;;22.00;8.00;;;4.80;100.00;;;;;;4948570;28;20139;-80
2024/03/25 00:51:55;;;;;;;21.35;7.20;;;4.80;100.00;;;;;;4946329;29;20426;-81
2024/03/25 00:54:21;;;;;;;22.48;7.40;;;4.80;100.00;;;;;;4949517;28;20134;-80
2024/03/25 00:56:46;;;;;;;15.88;6.85;;;4.90;100.00;;;;;;4950433;28;20415;-81
2024/03/25 00:59:12;;;;;;;21.23;7.22;;;4.90;100.00;;;;;;4952626;28;20109;-79
2024/03/25 01:01:38;;;;;;;22.85;8.23;;;4.90;100.00;;;;;;4948635;28;20062;-79
2024/03/25 01:04:04;;;;;;;28.42;8.65;;;4.90;100.00;;;;;;4948664;28;20043;-79
2024/03/25 01:06:30;;;;;;;24.52;7.57;;;4.90;100.00;;;;;;4930745;28;20051;-80
2024/03/25 01:08:56;;;;;;;23.60;8.18;;;4.90;100.00;;;;;;4947282;28;20656;-80
2024/03/25 01:11:22;;;;;;;44.35;14.15;;;5.00;100.00;;;;;;4929176;29;20070;-80
2024/03/25 01:13:48;;;;;;;24.05;8.77;;;5.00;100.00;;;;;;4948731;28;20063;-79
2024/03/25 01:16:14;;;;;;;21.98;7.90;;;5.00;100.00;;;;;;4949201;28;20047;-80
2024/03/25 01:18:40;;;;;;;20.85;7.68;;;5.00;100.00;;;;;;4933018;28;20081;-80
2024/03/25 01:21:06;;;;;;;24.30;7.45;;;5.00;100.00;;;;;;4949083;28;20179;-80
2024/03/25 01:23:32;;;;;;;22.55;8.10;;;5.00;100.00;;;;;;4949366;28;20126;-80
2024/03/25 01:25:58;;;;;;;23.77;8.57;;;5.00;100.00;;;;;;4949149;28;20066;-80
2024/03/25 01:28:24;;;;;;;22.77;7.78;;;5.00;100.00;;;;;;4930146;29;20055;-80
2024/03/25 01:30:50;;;;;;;22.13;7.68;;;5.00;100.00;;;;;;4928569;29;20174;-80
2024/03/25 01:33:15;;;;;;;20.73;8.45;;;5.10;100.00;;;;;;4931472;29;20516;-80
2024/03/25 01:35:41;;;;;;;20.60;8.27;;;5.00;100.00;;;;;;4949021;28;20047;-80
2024/03/25 01:38:08;;;;;;;22.10;7.43;;;5.10;100.00;;;;;;4950065;28;20105;-80
2024/03/25 01:40:34;;;;;;;24.75;7.70;;;5.10;100.00;;;;;;4944777;28;20071;-81
2024/03/25 01:43:02;;;;;;;26.02;8.23;;;5.10;100.00;;;;;;4948008;28;20070;-81
2024/03/25 01:45:29;;;;;;;24.73;8.52;;;5.10;100.00;;;;;;4946157;28;20059;-81
2024/03/25 01:47:57;;;;;;;29.40;8.85;;;5.10;100.00;;;;;;4947059;28;20062;-81
2024/03/25 01:50:24;;;;;;;23.52;8.18;;;5.10;100.00;;;;;;4945638;28;20130;-80
2024/03/25 01:52:50;;;;;;;24.27;7.88;;;5.10;100.00;;;;;;4945069;28;20663;-80
2024/03/25 01:55:21;;;;;;;21.73;7.47;;;5.10;100.00;;;;;;4940467;28;20043;-80
2024/03/25 01:57:47;;;;;;;30.20;8.80;;;5.10;100.00;;;;;;4924520;28;20051;-80
2024/03/25 02:00:16;;;;;;;32.30;9.10;;;5.10;100.00;;;;;;4948098;28;20062;-81
2024/03/25 02:02:44;;;;;;;26.48;9.10;;;5.10;100.00;;;;;;4950781;28;20055;-81
2024/03/25 02:05:11;;;;;;;25.02;8.73;;;5.20;100.00;;;;;;4936357;28;20062;-81
2024/03/25 02:07:37;;;;;;;21.80;9.32;;;5.20;100.00;;;;;;4935836;28;20070;-81
2024/03/25 02:10:04;;;;;;;31.08;9.32;;;5.20;100.00;;;;;;4952060;28;20059;-80
2024/03/25 02:12:31;;;;;;;28.27;8.98;;;5.20;100.00;;;;;;4952034;29;20058;-80
2024/03/25 02:14:58;;;;;;;28.55;9.18;;;5.20;100.00;;;;;;4946792;29;20504;-81
2024/03/25 02:17:24;;;;;;;29.98;9.93;;;5.20;100.00;;;;;;4947357;28;20047;-81
2024/03/25 02:19:50;;;;;;;28.70;9.60;;;5.20;100.00;;;;;;4949034;28;20051;-80
2024/03/25 02:22:17;;;;;;;31.58;9.70;;;5.20;100.00;;;;;;4934850;29;20051;-80
2024/03/25 02:24:45;;;;;;;33.40;9.93;;;5.20;100.00;;;;;;4934385;29;20063;-80
2024/03/25 02:27:14;;;;;;;31.13;9.13;;;5.20;100.00;;;;;;4935020;28;20059;-80
2024/03/25 02:29:41;;;;;;;31.38;8.88;;;5.20;100.00;;;;;;4929084;29;20738;-80
2024/03/25 02:32:11;;;;;;;25.17;8.73;;;5.20;100.00;;;;;;4950928;28;20062;-80
2024/03/25 02:34:46;;;;;;;25.73;8.55;;;5.20;100.00;;;;;;4950054;28;20055;-80
2024/03/25 02:37:12;;;;;;;24.05;8.23;;;5.30;100.00;;;;;;4937114;29;20055;-81
2024/03/25 02:39:38;;;;;;;24.25;7.78;;;5.20;100.00;;;;;;4951039;28;20051;-80
2024/03/25 02:42:04;;;;;;;29.35;8.50;;;5.30;100.00;;;;;;4935037;29;20047;-80
2024/03/25 02:44:31;;;;;;;26.13;7.75;;;5.20;100.00;;;;;;4950137;28;20051;-80
2024/03/25 02:46:58;;;;;;;21.60;8.40;;;5.30;100.00;;;;;;4936283;29;20054;-80
2024/03/25 02:49:24;;;;;;;19.67;7.70;;;5.30;100.00;;;;;;4952030;28;20035;-80
2024/03/25 02:51:50;;;;;;;24.67;6.88;;;5.30;100.00;;;;;;4946422;28;20469;-80
2024/03/25 02:54:16;;;;;;;16.60;6.18;;;5.30;100.00;;;;;;4935137;28;20058;-81
2024/03/25 02:56:43;;;;;;;23.95;7.72;;;5.30;100.00;;;;;;4952899;29;20058;-80
2024/03/25 02:59:09;;;;;;;18.60;5.85;;;5.30;100.00;;;;;;4950862;28;20567;-80
2024/03/25 03:01:35;;;;;;;22.70;6.97;;;5.30;100.00;;;;;;4932312;29;20138;-80
2024/03/25 03:04:00;;;;;;;19.27;6.47;;;5.30;100.00;;;;;;4948225;28;20051;-81
2024/03/25 03:06:27;;;;;;;25.55;7.05;;;5.30;100.00;;;;;;4934856;29;20066;-80
2024/03/25 03:08:52;;;;;;;25.63;6.88;;;5.30;100.00;;;;;;4952507;28;20051;-80
2024/03/25 03:11:18;;;;;;;19.45;6.38;;;5.30;100.00;;;;;;4951304;28;20065;-80
2024/03/25 03:13:44;;;;;;;26.10;7.13;;;5.30;100.00;;;;;;4949912;28;20071;-80
2024/03/25 03:16:10;;;;;;;18.88;6.85;;;5.30;100.00;;;;;;4934884;29;20132;-80
2024/03/25 03:18:36;;;;;;;27.33;7.47;;;5.30;100.00;;;;;;4950519;28;20083;-80
2024/03/25 03:21:02;;;;;;;21.02;6.32;;;5.30;100.00;;;;;;4950854;28;20425;-81
2024/03/25 03:23:27;;;;;;;18.73;6.25;;;5.30;100.00;;;;;;4946874;29;20055;-81
2024/03/25 03:25:53;;;;;;;25.85;6.47;;;5.30;100.00;;;;;;4951754;28;20063;-81
2024/03/25 03:28:19;;;;;;;27.42;7.00;;;5.30;100.00;;;;;;4951358;28;20500;-82
2024/03/25 03:30:45;;;;;;;16.58;7.07;;;5.30;100.00;;;;;;4947885;28;20055;-81
2024/03/25 03:33:11;;;;;;;19.80;6.55;;;5.30;100.00;;;;;;4952823;28;20054;-80
2024/03/25 03:35:36;;;;;;;23.52;7.32;;;5.30;100.00;;;;;;4949789;28;20055;-80
2024/03/25 03:38:02;;;;;;;25.80;6.95;;;5.30;100.00;;;;;;4948636;28;20059;-79
2024/03/25 03:40:29;;;;;;;21.67;6.35;;;5.30;100.00;;;;;;4932472;29;20051;-80
2024/03/25 03:42:55;;;;;;;24.75;5.88;;;5.30;100.00;;;;;;4948920;28;20054;-80
2024/03/25 03:45:25;;;;;;;16.92;6.45;;;5.30;100.00;;;;;;4932334;28;20051;-80
2024/03/25 03:47:51;;;;;;;18.58;6.78;;;5.30;100.00;;;;;;4933106;29;20047;-81
2024/03/25 03:50:17;;;;;;;20.25;6.97;;;5.30;100.00;;;;;;4949483;28;20059;-81
2024/03/25 03:52:43;;;;;;;23.52;6.82;;;5.30;100.00;;;;;;4948766;29;20161;-80
2024/03/25 03:55:09;;;;;;;33.45;8.02;;;5.30;100.00;;;;;;4932457;29;20063;-80
2024/03/25 03:57:35;;;;;;;24.60;6.97;;;5.30;100.00;;;;;;4933178;29;20058;-80
2024/03/25 04:00:01;;;;;;;26.95;7.10;;;5.40;100.00;;;;;;4934693;29;20542;-80
2024/03/25 04:02:28;;;;;;;19.45;7.10;;;5.40;100.00;;;;;;4932163;29;20047;-80
2024/03/25 04:04:54;;;;;;;28.38;7.05;;;5.40;100.00;;;;;;4948770;28;20066;-80
2024/03/25 04:07:26;;;;;;;23.90;7.55;;;5.40;100.00;;;;;;4946631;28;20051;-80
2024/03/25 04:09:53;;;;;;;27.75;8.18;;;5.40;100.00;;;;;;4928856;29;20055;-81
2024/03/25 04:12:19;;;;;;;23.50;7.95;;;5.30;100.00;;;;;;4929765;29;20062;-81
2024/03/25 04:14:54;;;;;;;23.60;7.43;;;5.40;100.00;;;;;;4948194;28;20086;-80
2024/03/25 04:17:21;;;;;;;;;;;5.40;100.00;;;;;;4947940;28;20169;-81
2024/03/25 04:19:51;;;;;;;21.83;7.38;;;5.40;100.00;;;;;;4946464;28;19930;-80
2024/03/25 04:22:17;;;;;;;26.15;8.25;;;5.40;100.00;;;;;;4930206;28;20744;-79
2024/03/25 04:24:43;;;;;;;25.30;8.90;;;5.40;100.00;;;;;;4930079;28;20055;-80
2024/03/25 04:27:09;;;;;;;31.38;8.85;;;5.40;100.00;;;;;;4947292;28;20147;-80
2024/03/25 04:29:35;;;;;;;32.13;8.93;;;5.40;100.00;;;;;;4932779;28;20079;-80
2024/03/25 04:32:02;;;;;;;27.38;9.55;;;5.40;100.00;;;;;;4947775;29;20059;-80
2024/03/25 04:34:31;;;;;;;33.83;8.85;;;5.40;100.00;;;;;;4948012;28;20059;-80
2024/03/25 04:36:57;;;;;;;31.98;10.23;;;5.40;100.00;;;;;;4930780;29;20547;-81
2024/03/25 04:39:22;;;;;;;37.00;10.85;;;5.40;100.00;;;;;;4927222;29;20778;-81
2024/03/25 04:41:48;;;;;;;42.63;11.20;;;5.40;100.00;;;;;;4950383;28;20127;-81
2024/03/25 04:44:14;;;;;;;41.13;12.15;;;5.40;100.00;;;;;;4932589;29;20055;-82
2024/03/25 04:46:40;;;;;;;45.92;13.00;;;5.40;100.00;;;;;;4949187;28;20101;-81
2024/03/25 04:49:06;;;;;;;41.70;13.32;;;5.40;100.00;;;;;;4950358;28;20055;-82
2024/03/25 04:51:32;;;;;;;44.75;13.68;;;5.40;100.00;;;;;;4951420;29;20061;-82
2024/03/25 04:53:58;;;;;;;39.35;13.23;;;5.40;100.00;;;;;;4934198;28;20066;-82
2024/03/25 04:56:24;;;;;;;59.10;15.13;;;5.40;100.00;;;;;;4934850;29;20122;-82
2024/03/25 04:58:49;;;;;;;55.85;15.68;;;5.40;100.00;;;;;;4936118;28;20058;-82
2024/03/25 05:01:15;;;;;;;55.63;16.42;;;5.40;100.00;;;;;;4934073;29;20047;-81
2024/03/25 05:03:41;;;;;;;68.43;16.92;;;5.40;100.00;;;;;;4949539;28;20055;-81
2024/03/25 05:06:11;;;;;;;60.25;17.45;;;5.40;100.00;;;;;;4949190;28;20057;-81
2024/03/25 05:08:37;;;;;;;75.38;18.08;;;5.40;100.00;;;;;;4945779;28;20055;-81
2024/03/25 05:11:03;;;;;;;76.18;18.77;;;5.40;100.00;;;;;;4955896;28;20063;-80
2024/03/25 05:13:28;;;;;;;84.38;19.45;;;5.40;100.00;;;;;;4946001;28;20055;-81
2024/03/25 05:15:55;;;;;;;70.88;17.95;;;5.40;100.00;;;;;;4931790;28;20047;-81
2024/03/25 05:18:21;;;;;;;72.65;18.73;;;5.40;100.00;;;;;;4948296;28;20059;-81
2024/03/25 05:20:46;;;;;;;75.63;19.67;;;5.40;100.00;;;;;;4929228;28;20059;-81
2024/03/25 05:23:12;;;;;;;59.20;17.55;;;5.40;100.00;;;;;;4946232;28;20051;-81
2024/03/25 05:25:38;;;;;;;72.32;17.40;;;5.30;100.00;;;;;;4941533;28;20150;-78
2024/03/25 05:28:04;;;;;;;64.90;17.40;;;5.30;100.00;;;;;;4928826;28;20106;-78
2024/03/25 05:30:30;;;;;;;67.50;16.73;;;5.30;100.00;;;;;;4928286;29;20412;-78
2024/03/25 05:32:56;;;;;;;81.50;19.40;;;5.30;100.00;;;;;;4931942;29;20063;-80
2024/03/25 05:35:22;;;;;;;75.25;19.27;;;5.30;100.00;;;;;;4946308;28;20061;-79
2024/03/25 05:37:48;;;;;;;80.75;20.38;;;5.30;100.00;;;;;;4932920;29;20062;-80
2024/03/25 05:40:15;;;;;;;64.53;19.58;;;5.30;100.00;;;;;;4952625;29;20055;-83
2024/03/25 05:42:44;;;;;;;59.28;17.42;;;5.30;100.00;;;;;;4953982;29;20420;-82
2024/03/25 05:45:10;;;;;;;64.32;18.35;;;5.30;100.00;;;;;;4951362;28;20123;-79
2024/03/25 05:47:36;;;;;;;79.90;34.88;;;5.30;100.00;;;;;;4933444;29;20547;-76
2024/03/25 05:50:05;;;;;;;48.92;14.38;;;5.30;100.00;;;;;;4927278;29;20091;-76
2024/03/25 05:52:31;;;;;;;54.58;16.67;;;5.30;100.00;;;;;;4932284;28;20744;-75
2024/03/25 05:54:57;;;;;;;43.35;12.90;;;5.30;100.00;;;;;;4947153;29;20051;-72
2024/03/25 05:57:23;;;;;;;37.80;12.25;;;5.30;100.00;;;;;;4946552;28;21259;-72
2024/03/25 05:59:49;;;;;;;43.60;12.98;;;5.30;100.00;;;;;;4947013;28;20058;-72
2024/03/25 06:02:15;;;;;;;46.33;12.35;;;5.30;100.00;;;;;;4946954;28;20114;-72
2024/03/25 06:04:41;;;;;;;46.42;14.48;;;5.30;100.00;;;;;;4947318;28;20047;-72
2024/03/25 06:07:07;;;;;;;44.70;13.75;;;5.30;100.00;;;;;;4947340;29;20062;-71
2024/03/25 06:09:32;;;;;;;42.85;13.10;;;5.30;100.00;;;;;;4944305;29;20059;-71
2024/03/25 06:11:58;;;;;;;44.88;13.02;;;5.30;100.00;;;;;;4947606;29;20157;-71
2024/03/25 06:14:24;;;;;;;40.33;13.55;;;5.30;100.00;;;;;;4947315;28;20567;-71
2024/03/25 06:16:50;;;;;;;44.22;13.75;;;5.30;100.00;;;;;;4947037;28;20047;-71
2024/03/25 06:19:16;;;;;;;34.83;10.90;;;5.30;100.00;;;;;;4932335;29;20047;-71
2024/03/25 06:21:42;;;;;;;39.60;10.90;;;5.30;100.00;;;;;;4954786;28;20465;-71
2024/03/25 06:24:08;;;;;;;17.77;7.38;;;5.30;100.00;;;;;;4947862;28;20055;-71
2024/03/25 06:26:34;;;;;;;22.40;7.68;;;5.20;100.00;;;;;;4931323;28;20067;-71
2024/03/25 06:29:00;;;;;;;18.15;5.68;;;5.20;100.00;;;;;;4946834;29;20146;-72
2024/03/25 06:34:21;;;;;;;11.43;3.42;;;5.10;100.00;;;;;;4947379;28;20055;-71
2024/03/25 06:36:50;;;;;;;8.48;3.08;;;5.00;100.00;;;;;;4930626;29;20819;-71
2024/03/25 06:39:16;;;;;;;7.25;3.60;;;5.00;100.00;;;;;;4946806;28;20066;-71
2024/03/25 06:41:42;;;;;;;7.35;2.90;;;5.00;100.00;;;;;;4947719;28;20127;-71
2024/03/25 06:44:08;;;;;;;9.25;3.40;;;5.00;100.00;;;;;;4947013;28;20055;-71
2024/03/25 06:46:34;;;;;;;9.68;2.33;;;5.00;100.00;;;;;;4946224;28;20150;-71
2024/03/25 06:49:00;;;;;;;9.13;3.88;;;4.90;100.00;;;;;;4929499;29;20158;-71
2024/03/25 06:51:26;;;;;;;8.13;3.38;;;5.00;100.00;;;;;;4946376;29;20122;-71
2024/03/25 06:53:52;;;;;;;12.02;4.32;;;5.00;100.00;;;;;;4945655;29;20571;-71
2024/03/25 06:56:18;;;;;;;9.57;4.18;;;5.00;100.00;;;;;;4946422;29;20164;-71
2024/03/25 06:58:44;;;;;;;13.43;4.93;;;5.00;100.00;;;;;;4946426;28;20177;-71
2024/03/25 07:01:13;;;;;;;15.05;7.03;;;5.00;100.00;;;;;;4946057;28;20650;-71
2024/03/25 07:03:40;;;;;;;14.10;4.03;;;5.00;100.00;;;;;;4946112;29;20122;-72
2024/03/25 07:06:06;;;;;;;6.90;3.15;;;5.00;100.00;;;;;;4946715;29;20059;-72
2024/03/25 07:08:32;;;;;;;7.20;4.10;;;4.80;100.00;;;;;;4946248;28;20050;-73
2024/03/25 07:10:59;;;;;;;11.35;4.45;;;4.70;100.00;;;;;;4942359;28;20071;-72
2024/03/25 07:13:25;;;;;;;5.30;1.95;;;4.60;100.00;;;;;;4929100;29;20062;-72
2024/03/25 07:15:51;;;;;;;5.07;2.88;;;4.40;100.00;;;;;;4930247;29;20043;-71
2024/03/25 07:18:17;;;;;;;3.80;1.63;;;4.40;100.00;;;;;;4930036;28;20047;-72
2024/03/25 07:20:43;;;;;;;3.60;1.52;;;4.30;100.00;;;;;;4946850;28;20055;-72
2024/03/25 07:23:10;;;;;;;7.82;3.25;;;4.30;100.00;;;;;;4946361;28;20062;-71
2024/03/25 07:25:36;;;;;;;5.78;2.47;;;4.30;100.00;;;;;;4930569;29;20066;-71
2024/03/25 07:28:05;;;;;;;15.52;3.75;;;4.30;100.00;;;;;;4929881;29;20063;-71
2024/03/25 07:30:31;;;;;;;7.60;2.80;;;4.30;100.00;;;;;;4950882;28;20059;-71
2024/03/25 07:32:58;;;;;;;9.68;3.10;;;4.30;100.00;;;;;;4945664;28;20058;-71
2024/03/25 07:35:24;;;;;;;7.88;3.50;;;4.30;100.00;;;;;;4942271;29;20048;-71
2024/03/25 07:37:51;;;;;;;9.35;3.13;;;4.40;100.00;;;;;;4946495;29;20576;-71
2024/03/25 07:40:21;;;;;;;8.82;2.75;;;4.40;100.00;;;;;;4930160;29;20094;-71
2024/03/25 07:42:48;;;;;;;6.65;3.13;;;4.50;100.00;;;;;;4945546;28;20055;-71
2024/03/25 07:45:15;;;;;;;14.45;3.08;;;4.50;100.00;;;;;;4946221;29;20066;-71
2024/03/25 07:47:41;;;;;;;7.07;3.17;;;4.50;100.00;;;;;;4930316;29;20533;-72
2024/03/25 07:50:08;;;;;;;12.02;3.15;;;4.60;100.00;;;;;;4946107;29;20109;-72
2024/03/25 07:52:36;;;;;;;11.10;4.18;;;4.70;100.00;;;;;;4946028;28;20122;-72
2024/03/25 07:55:02;;;;;;;14.77;4.10;;;4.70;100.00;;;;;;4945913;29;20110;-71
2024/03/25 07:57:28;;;;;;;15.90;4.53;;;4.80;100.00;;;;;;4929932;29;20058;-72
2024/03/25 07:59:53;;;;;;;15.55;5.18;;;4.90;100.00;;;;;;4946111;28;20489;-71
2024/03/25 08:02:19;;;;;;;16.75;5.22;;;5.00;100.00;;;;;;4945962;29;20062;-71
2024/03/25 08:04:45;;;;;;;13.23;5.53;;;5.00;100.00;;;;;;4928368;29;20055;-72
2024/03/25 08:07:11;;;;;;;17.75;5.75;;;5.10;100.00;;;;;;4929703;29;20492;-71
2024/03/25 08:09:37;;;;;;;17.23;5.53;;;5.20;100.00;;;;;;4945069;28;20047;-72
2024/03/25 08:12:03;;;;;;;37.33;7.25;;;5.20;100.00;;;;;;4928360;29;20133;-72
2024/03/25 08:14:28;;;;;;;30.40;6.72;;;5.30;100.00;;;;;;4943069;29;20814;-72
2024/03/25 08:16:54;;;;;;;27.55;7.15;;;5.30;100.00;;;;;;4927551;29;20055;-72
2024/03/25 08:19:20;;;;;;;21.73;6.85;;;5.40;100.00;;;;;;4944423;29;20476;-72
2024/03/25 08:21:46;;;;;;;25.13;6.97;;;5.40;100.00;;;;;;4928116;29;20055;-72
2024/03/25 08:24:15;;;;;;;20.58;6.70;;;5.60;100.00;;;;;;4927387;28;20051;-72
2024/03/25 08:26:41;;;;;;;19.00;6.10;;;5.70;100.00;;;;;;4945054;28;20047;-72
2024/03/25 08:29:07;;;;;;;22.20;6.97;;;5.70;100.00;;;;;;4942797;28;20063;-72
2024/03/25 08:31:33;;;;;;;21.98;6.50;;;6.00;100.00;;;;;;4927541;29;20058;-72
2024/03/25 08:33:59;;;;;;;22.17;7.28;;;6.10;100.00;;;;;;4943059;28;20107;-73
2024/03/25 08:36:26;;;;;;;20.13;6.63;;;6.20;100.00;;;;;;4943260;28;20122;-74
2024/03/25 08:38:52;;;;;;;30.90;8.02;;;6.30;100.00;;;;;;4928728;29;20141;-76
2024/03/25 08:41:18;;;;;;;24.52;7.22;;;6.40;100.00;;;;;;4942921;28;20055;-74
2024/03/25 08:43:44;;;;;;;24.45;6.28;;;6.60;100.00;;;;;;4943958;28;20062;-76
2024/03/25 08:46:10;;;;;;;27.20;6.72;;;6.60;100.00;;;;;;4928534;29;20138;-74
2024/03/25 08:48:36;;;;;;;22.38;6.30;;;6.70;100.00;;;;;;4940436;29;20497;-74
2024/03/25 08:51:03;;;;;;;31.52;6.57;;;6.60;100.00;;;;;;4945417;28;20055;-75
2024/03/25 08:53:29;;;;;;;19.05;6.40;;;6.60;100.00;;;;;;4944339;28;20668;-74
2024/03/25 08:55:55;;;;;;;17.10;5.75;;;6.60;100.00;;;;;;4929226;29;20062;-74
2024/03/25 08:58:21;;;;;;;23.25;5.15;;;6.60;100.00;;;;;;4943842;29;20122;-74
2024/03/25 09:00:47;;;;;;;16.45;5.28;;;6.90;100.00;;;;;;4928759;29;20086;-75
2024/03/25 09:03:13;;;;;;;15.35;6.03;;;7.10;100.00;;;;;;4943922;29;20130;-72
2024/03/25 09:05:39;;;;;;;18.70;5.57;;;7.70;100.00;;;;;;4928071;29;20082;-73
2024/03/25 09:08:06;;;;;;;20.30;5.20;;;7.70;100.00;;;;;;4928719;29;20085;-74
2024/03/25 09:13:17;;;;;;;19.43;6.67;;;7.30;100.00;;;;;;4943513;28;20055;-74
2024/03/25 09:15:42;;;;;;;30.73;5.82;;;7.30;100.00;;;;;;4944192;28;20062;-74
2024/03/25 09:18:08;;;;;;;14.55;4.15;;;7.20;100.00;;;;;;4925884;28;20113;-73
2024/03/25 09:20:34;;;;;;;18.98;4.82;;;7.00;100.00;;;;;;4924263;29;20134;-73
2024/03/25 09:23:00;;;;;;;12.90;3.95;;;6.90;100.00;;;;;;4927500;28;20047;-71
2024/03/25 09:25:26;;;;;;;11.15;3.70;;;6.90;100.00;;;;;;4940156;28;20738;-75
2024/03/25 09:27:52;;;;;;;11.00;3.58;;;7.20;100.00;;;;;;4945523;28;20492;-74
2024/03/25 09:30:19;;;;;;;7.65;3.50;;;7.80;100.00;;;;;;4943697;28;20718;-72
2024/03/25 09:32:45;;;;;;;11.02;5.55;;;7.90;100.00;;;;;;4943932;28;20066;-72
2024/03/25 09:35:11;;;;;;;9.95;3.35;;;7.90;100.00;;;;;;4944831;28;20051;-72
2024/03/25 09:37:37;;;;;;;10.90;3.78;;;7.90;100.00;;;;;;4942184;28;20055;-73
2024/03/25 09:40:04;;;;;;;7.88;2.85;;;8.40;100.00;;;;;;4928884;28;20089;-76
2024/03/25 09:42:54;;;;;;;8.93;2.90;;;8.30;100.00;;;;;;4940449;28;20047;-76
2024/03/25 09:45:28;;;;;;;9.63;3.10;;;7.90;100.00;;;;;;4925410;28;20480;-73
2024/03/25 09:47:55;;;;;;;5.10;2.77;;;7.90;100.00;;;;;;4928905;29;20058;-72
2024/03/25 09:50:21;;;;;;;9.52;2.95;;;8.10;100.00;;;;;;4939139;28;20299;-74
2024/03/25 09:52:48;;;;;;;7.38;2.67;;;8.40;100.00;;;;;;4928247;29;20062;-69
2024/03/25 09:55:15;;;;;;;6.90;2.38;;;8.50;100.00;;;;;;4927781;29;20051;-74
2024/03/25 09:57:45;;;;;;;6.97;2.40;;;8.30;100.00;;;;;;4944544;29;20082;-74
2024/03/25 10:00:12;;;;;;;5.80;2.20;;;9.10;100.00;;;;;;4945229;28;20086;-74
2024/03/25 10:02:42;;;;;;;4.15;2.10;;;9.50;100.00;;;;;;4937666;28;20056;-73
2024/03/25 10:05:08;;;;;;;7.95;2.22;;;9.20;100.00;;;;;;4939612;28;20571;-76
2024/03/25 10:07:35;;;;;;;4.85;1.67;;;8.70;100.00;;;;;;4942670;28;20067;-74
2024/03/25 10:10:05;;;;;;;7.13;2.60;;;8.50;100.00;;;;;;4923719;28;20083;-72
2024/03/25 10:12:31;;;;;;;7.85;2.67;;;8.30;100.00;;;;;;4938229;28;20089;-72
2024/03/25 10:14:58;;;;;;;4.63;1.88;;;8.30;100.00;;;;;;4928979;29;20059;-72
2024/03/25 10:17:24;;;;;;;9.27;2.92;;;8.50;100.00;;;;;;4923892;29;20055;-72
2024/03/25 10:19:50;;;;;;;5.40;2.05;;;8.90;100.00;;;;;;4928211;29;20047;-75
2024/03/25 10:22:16;;;;;;;4.00;1.70;;;9.30;100.00;;;;;;4931437;28;20507;-73
2024/03/25 10:24:44;;;;;;;4.05;1.73;;;9.20;100.00;;;;;;4945006;28;20476;-76
2024/03/25 10:27:20;;;;;;;4.53;2.00;;;8.90;100.00;;;;;;4948403;28;20059;-75
2024/03/25 10:29:55;;;;;;;3.13;1.67;;;8.80;100.00;;;;;;4946767;28;20551;-73
2024/03/25 10:32:24;;;;;;;8.20;2.10;;;8.80;100.00;;;;;;4928146;28;20752;-75
2024/03/25 10:34:51;;;;;;;5.75;1.65;;;8.80;100.00;;;;;;4947823;28;20051;-76
2024/03/25 10:37:17;;;;;;;2.70;1.42;;;8.80;100.00;;;;;;4930315;28;20416;-75
2024/03/25 10:39:48;;;;;;;7.05;1.90;;;8.60;100.00;;;;;;4944078;28;20059;-73
2024/03/25 10:42:17;;;;;;;5.18;1.90;;;8.50;100.00;;;;;;4947381;28;20051;-75
2024/03/25 10:44:44;;;;;;;8.98;2.00;;;8.30;100.00;;;;;;4940240;28;20110;-75
2024/03/25 10:47:16;;;;;;;5.07;2.20;;;8.20;100.00;;;;;;4947399;29;20050;-74
2024/03/25 10:49:56;;;;;;;7.72;2.03;;;8.10;100.00;;;;;;4945397;29;20055;-75
2024/03/25 10:52:24;;;;;;;9.82;2.22;;;8.10;100.00;;;;;;4944983;28;20054;-76
2024/03/25 10:54:50;;;;;;;7.35;2.30;;;8.10;100.00;;;;;;4943785;29;20523;-76
2024/03/25 10:57:18;;;;;;;9.20;2.25;;;8.30;100.00;;;;;;4928567;29;20047;-74
2024/03/25 10:59:45;;;;;;;6.97;2.55;;;8.60;100.00;;;;;;4945713;28;20051;-72
2024/03/25 11:02:12;;;;;;;11.90;2.47;;;8.80;100.00;;;;;;4944608;28;20051;-72
2024/03/25 11:04:40;;;;;;;5.80;2.40;;;8.80;100.00;;;;;;4943668;28;20039;-72
2024/03/25 11:07:11;;;;;;;4.75;2.10;;;8.80;100.00;;;;;;4928221;28;20055;-74
2024/03/25 11:09:42;;;;;;;4.25;1.98;;;8.80;100.00;;;;;;4929530;29;20066;-74
2024/03/25 11:12:14;;;;;;;7.35;2.40;;;8.90;100.00;;;;;;4926226;28;20113;-75
2024/03/25 11:14:41;;;;;;;5.63;1.85;;;9.00;100.00;;;;;;4943204;28;20055;-73
2024/03/25 11:17:16;;;;;;;4.53;1.98;;;9.00;100.00;;;;;;4929040;28;20575;-77
2024/03/25 11:19:42;;;;;;;4.60;1.70;;;8.90;100.00;;;;;;4943013;28;20436;-75
2024/03/25 11:22:10;;;;;;;3.08;1.90;;;8.60;100.00;;;;;;4930572;28;20055;-74
2024/03/25 11:24:37;;;;;;;4.13;1.80;;;8.40;100.00;;;;;;4930258;29;20095;-75
2024/03/25 11:27:06;;;;;;;3.83;1.35;;;8.20;100.00;;;;;;4946836;28;20059;-71
2024/03/25 11:29:33;;;;;;;7.78;2.55;;;8.00;100.00;;;;;;4943453;28;20058;-71
2024/03/25 11:32:04;;;;;;;6.65;2.20;;;7.90;100.00;;;;;;4928863;28;20170;-71
2024/03/25 11:34:30;;;;;;;16.77;2.53;;;7.80;100.00;;;;;;4943385;28;20461;-73
2024/03/25 11:36:57;;;;;;;4.68;1.50;;;8.10;100.00;;;;;;4946498;28;20108;-71
2024/03/25 11:39:26;;;;;;;7.15;1.95;;;8.30;100.00;;;;;;4930296;28;20055;-72
2024/03/25 11:41:57;;;;;;;2.17;1.15;;;8.50;100.00;;;;;;4930780;29;20612;-72
2024/03/25 11:44:23;;;;;;;3.92;1.67;;;9.40;100.00;;;;;;4927033;28;20050;-72
2024/03/25 11:46:53;;;;;;;4.10;1.25;;;10.50;100.00;;;;;;4928624;29;20393;-72
2024/03/25 11:49:21;;;;;;;3.92;1.38;;;10.80;100.00;;;;;;4946134;28;20412;-72
2024/03/25 11:51:46;;;;;;;4.35;1.23;;;10.60;100.00;;;;;;4924246;29;20806;-71
2024/03/25 11:54:13;;;;;;;6.18;1.80;;;10.30;100.00;;;;;;4928902;28;20074;-71
2024/03/25 11:56:39;;;;;;;3.88;1.42;;;9.90;100.00;;;;;;4927185;29;20542;-72
2024/03/25 11:59:06;;;;;;;2.05;1.15;;;9.70;100.00;;;;;;4928650;29;20043;-71
2024/03/25 12:01:32;;;;;;;4.03;1.58;;;9.40;100.00;;;;;;4929570;29;20058;-72
2024/03/25 12:04:15;;;;;;;3.47;1.30;;;9.40;100.00;;;;;;4929831;29;20055;-74
2024/03/25 12:06:41;;;;;;;4.60;1.50;;;9.20;100.00;;;;;;4930286;29;20054;-72
2024/03/25 12:11:55;;;;;;;7.47;2.90;;;9.30;100.00;;;;;;4904939;29;20957;-75
2024/03/25 12:14:22;;;;;;;4.57;1.60;;;10.10;100.00;;;;;;4943785;28;20055;-73
2024/03/25 12:16:50;;;;;;;6.00;2.72;;;11.70;100.00;;;;;;4927803;28;20051;-72
2024/03/25 12:19:18;;;;;;;2.55;1.40;;;12.20;100.00;;;;;;4929157;28;20603;-72
2024/03/25 12:21:47;;;;;;;4.28;1.27;;;12.70;100.00;;;;;;4945781;28;20047;-72
2024/03/25 12:24:18;;;;;;;13.50;1.60;;;12.30;100.00;;;;;;4929441;28;20859;-72
2024/03/25 12:26:44;;;;;;;10.50;1.67;;;12.10;100.00;;;;;;4943421;28;20070;-73
2024/03/25 12:29:09;;;;;;;2.88;1.20;;;12.20;100.00;;;;;;4927104;28;20051;-73
2024/03/25 12:31:36;;;;;;;2.25;1.30;;;11.70;100.00;;;;;;4944096;28;20078;-75
2024/03/25 12:34:09;;;;;;;3.95;1.33;;;11.30;100.00;;;;;;4945180;28;20113;-74
2024/03/25 12:36:36;;;;;;;3.42;1.63;;;11.00;100.00;;;;;;4944526;28;20106;-74
2024/03/25 12:39:02;;;;;;;4.40;1.50;;;10.90;100.00;;;;;;4944233;28;20059;-75
2024/03/25 12:41:28;;;;;;;2.80;1.02;;;10.60;100.00;;;;;;4939000;28;20767;-74
2024/03/25 12:43:55;;;;;;;5.82;1.80;;;10.30;100.00;;;;;;4945579;28;20059;-75